sensor_id;sensor_type;location;lat;lon;timestamp;P1;durP1;ratioP1;P2;durP2;ratioP2
59308;SDS011;48433;53.016;-2.260;2023-05-10T00:01:30;16.00;;;5.03;;
59308;SDS011;48433;53.016;-2.260;2023-05-10T00:03:57;12.38;;;5.03;;
59308;SDS011;48433;53.016;-2.260;2023-05-10T00:06:25;17.73;;;6.63;;
59308;SDS011;48433;53.016;-2.260;2023-05-10T00:08:53;20.02;;;5.28;;
59308;SDS011;48433;53.016;-2.260;2023-05-10T00:11:21;17.88;;;5.32;;
59308;SDS011;48433;53.016;-2.260;2023-05-10T00:13:49;18.17;;;5.63;;
59308;SDS011;48433;53.016;-2.260;2023-05-10T00:16:16;12.23;;;4.97;;
59308;SDS011;48433;53.016;-2.260;2023-05-10T00:18:44;15.75;;;5.35;;
59308;SDS011;48433;53.016;-2.260;2023-05-10T00:21:12;17.25;;;5.20;;
59308;SDS011;48433;53.016;-2.260;2023-05-10T00:23:39;17.90;;;4.95;;
59308;SDS011;48433;53.016;-2.260;2023-05-10T00:26:07;14.40;;;5.60;;
59308;SDS011;48433;53.016;-2.260;2023-05-10T00:28:37;11.60;;;4.93;;
59308;SDS011;48433;53.016;-2.260;2023-05-10T00:31:04;15.98;;;4.90;;
59308;SDS011;48433;53.016;-2.260;2023-05-10T00:33:32;23.02;;;5.97;;
59308;SDS011;48433;53.016;-2.260;2023-05-10T00:35:59;17.13;;;5.18;;
59308;SDS011;48433;53.016;-2.260;2023-05-10T00:38:27;14.90;;;5.22;;
59308;SDS011;48433;53.016;-2.260;2023-05-10T00:40:56;21.38;;;6.95;;
59308;SDS011;48433;53.016;-2.260;2023-05-10T00:43:29;13.88;;;5.03;;
59308;SDS011;48433;53.016;-2.260;2023-05-10T00:45:57;12.75;;;4.22;;
59308;SDS011;48433;53.016;-2.260;2023-05-10T00:48:24;15.25;;;4.47;;
59308;SDS011;48433;53.016;-2.260;2023-05-10T00:50:52;14.93;;;4.53;;
59308;SDS011;48433;53.016;-2.260;2023-05-10T00:53:20;16.35;;;5.05;;
59308;SDS011;48433;53.016;-2.260;2023-05-10T00:55:48;18.60;;;6.28;;
59308;SDS011;48433;53.016;-2.260;2023-05-10T00:58:15;17.60;;;5.68;;
59308;SDS011;48433;53.016;-2.260;2023-05-10T01:00:43;14.20;;;5.15;;
59308;SDS011;48433;53.016;-2.260;2023-05-10T01:03:15;17.75;;;5.57;;
59308;SDS011;48433;53.016;-2.260;2023-05-10T01:05:43;17.13;;;5.45;;
59308;SDS011;48433;53.016;-2.260;2023-05-10T01:08:10;16.00;;;6.28;;
59308;SDS011;48433;53.016;-2.260;2023-05-10T01:10:38;17.60;;;5.28;;
59308;SDS011;48433;53.016;-2.260;2023-05-10T01:13:05;17.73;;;5.82;;
59308;SDS011;48433;53.016;-2.260;2023-05-10T01:15:33;17.63;;;6.53;;
59308;SDS011;48433;53.016;-2.260;2023-05-10T01:18:01;22.02;;;6.07;;
59308;SDS011;48433;53.016;-2.260;2023-05-10T01:20:32;13.15;;;5.20;;
59308;SDS011;48433;53.016;-2.260;2023-05-10T01:23:12;14.70;;;4.75;;
59308;SDS011;48433;53.016;-2.260;2023-05-10T01:26:13;13.27;;;6.03;;
59308;SDS011;48433;53.016;-2.260;2023-05-10T01:29:19;12.60;;;5.43;;
59308;SDS011;48433;53.016;-2.260;2023-05-10T01:42:50;18.45;;;5.78;;
59308;SDS011;48433;53.016;-2.260;2023-05-10T01:48:09;13.00;;;5.70;;
59308;SDS011;48433;53.016;-2.260;2023-05-10T01:50:39;16.92;;;5.57;;
59308;SDS011;48433;53.016;-2.260;2023-05-10T01:53:10;16.50;;;5.80;;
59308;SDS011;48433;53.016;-2.260;2023-05-10T01:55:44;18.77;;;5.10;;
59308;SDS011;48433;53.016;-2.260;2023-05-10T01:58:38;15.65;;;5.50;;
59308;SDS011;48433;53.016;-2.260;2023-05-10T02:01:07;18.35;;;6.78;;
59308;SDS011;48433;53.016;-2.260;2023-05-10T02:03:37;14.57;;;6.22;;
59308;SDS011;48433;53.016;-2.260;2023-05-10T02:06:07;12.07;;;5.43;;
59308;SDS011;48433;53.016;-2.260;2023-05-10T02:08:37;15.52;;;5.68;;
59308;SDS011;48433;53.016;-2.260;2023-05-10T02:11:07;14.65;;;5.35;;
59308;SDS011;48433;53.016;-2.260;2023-05-10T02:13:38;15.10;;;5.45;;
59308;SDS011;48433;53.016;-2.260;2023-05-10T02:16:07;19.35;;;5.60;;
59308;SDS011;48433;53.016;-2.260;2023-05-10T02:18:35;13.75;;;5.13;;
59308;SDS011;48433;53.016;-2.260;2023-05-10T02:21:03;21.25;;;7.03;;
59308;SDS011;48433;53.016;-2.260;2023-05-10T02:23:32;11.90;;;5.57;;
59308;SDS011;48433;53.016;-2.260;2023-05-10T02:26:04;13.63;;;5.50;;
59308;SDS011;48433;53.016;-2.260;2023-05-10T02:28:33;14.85;;;6.00;;
59308;SDS011;48433;53.016;-2.260;2023-05-10T02:31:07;14.80;;;6.13;;
59308;SDS011;48433;53.016;-2.260;2023-05-10T02:33:40;14.13;;;5.93;;
59308;SDS011;48433;53.016;-2.260;2023-05-10T02:36:10;14.43;;;5.55;;
59308;SDS011;48433;53.016;-2.260;2023-05-10T02:38:39;18.30;;;5.88;;
59308;SDS011;48433;53.016;-2.260;2023-05-10T02:41:08;13.13;;;5.32;;
59308;SDS011;48433;53.016;-2.260;2023-05-10T02:43:37;17.27;;;5.68;;
59308;SDS011;48433;53.016;-2.260;2023-05-10T02:46:06;10.57;;;4.82;;
59308;SDS011;48433;53.016;-2.260;2023-05-10T02:48:35;14.32;;;4.93;;
59308;SDS011;48433;53.016;-2.260;2023-05-10T02:51:04;11.35;;;5.10;;
59308;SDS011;48433;53.016;-2.260;2023-05-10T02:53:34;11.52;;;5.70;;
59308;SDS011;48433;53.016;-2.260;2023-05-10T02:56:05;15.27;;;5.63;;
59308;SDS011;48433;53.016;-2.260;2023-05-10T02:58:40;14.30;;;5.03;;
59308;SDS011;48433;53.016;-2.260;2023-05-10T03:01:08;20.58;;;6.35;;
59308;SDS011;48433;53.016;-2.260;2023-05-10T03:03:36;18.25;;;5.90;;
59308;SDS011;48433;53.016;-2.260;2023-05-10T03:06:03;16.33;;;5.78;;
59308;SDS011;48433;53.016;-2.260;2023-05-10T03:08:31;11.52;;;4.88;;
59308;SDS011;48433;53.016;-2.260;2023-05-10T03:17:23;11.68;;;4.80;;
59308;SDS011;48433;53.016;-2.260;2023-05-10T03:20:18;15.63;;;5.45;;
59308;SDS011;48433;53.016;-2.260;2023-05-10T03:22:53;21.38;;;5.75;;
59308;SDS011;48433;53.016;-2.260;2023-05-10T03:25:26;14.73;;;5.38;;
59308;SDS011;48433;53.016;-2.260;2023-05-10T03:27:56;14.32;;;4.85;;
59308;SDS011;48433;53.016;-2.260;2023-05-10T03:30:26;12.57;;;5.25;;
59308;SDS011;48433;53.016;-2.260;2023-05-10T03:32:54;16.17;;;5.93;;
59308;SDS011;48433;53.016;-2.260;2023-05-10T03:35:24;16.88;;;5.97;;
59308;SDS011;48433;53.016;-2.260;2023-05-10T03:37:52;13.88;;;5.63;;
59308;SDS011;48433;53.016;-2.260;2023-05-10T03:40:20;12.73;;;5.70;;
59308;SDS011;48433;53.016;-2.260;2023-05-10T03:42:47;21.88;;;7.35;;
59308;SDS011;48433;53.016;-2.260;2023-05-10T03:45:15;17.75;;;7.05;;
59308;SDS011;48433;53.016;-2.260;2023-05-10T03:47:43;14.85;;;6.18;;
59308;SDS011;48433;53.016;-2.260;2023-05-10T03:50:11;20.27;;;7.53;;
59308;SDS011;48433;53.016;-2.260;2023-05-10T03:52:38;17.00;;;6.35;;
59308;SDS011;48433;53.016;-2.260;2023-05-10T03:55:07;15.50;;;5.53;;
59308;SDS011;48433;53.016;-2.260;2023-05-10T03:57:37;17.53;;;7.03;;
59308;SDS011;48433;53.016;-2.260;2023-05-10T04:00:06;16.92;;;5.90;;
59308;SDS011;48433;53.016;-2.260;2023-05-10T04:02:40;15.65;;;6.18;;
59308;SDS011;48433;53.016;-2.260;2023-05-10T04:05:14;18.60;;;6.57;;
59308;SDS011;48433;53.016;-2.260;2023-05-10T04:07:42;20.25;;;6.45;;
59308;SDS011;48433;53.016;-2.260;2023-05-10T04:10:11;18.73;;;7.13;;
59308;SDS011;48433;53.016;-2.260;2023-05-10T04:12:39;15.75;;;6.70;;
59308;SDS011;48433;53.016;-2.260;2023-05-10T04:15:07;17.00;;;6.93;;
59308;SDS011;48433;53.016;-2.260;2023-05-10T04:17:35;16.77;;;6.63;;
59308;SDS011;48433;53.016;-2.260;2023-05-10T04:20:02;16.33;;;6.93;;
59308;SDS011;48433;53.016;-2.260;2023-05-10T04:22:31;16.70;;;6.75;;
59308;SDS011;48433;53.016;-2.260;2023-05-10T04:24:59;19.27;;;7.10;;
59308;SDS011;48433;53.016;-2.260;2023-05-10T04:27:26;19.58;;;6.88;;
59308;SDS011;48433;53.016;-2.260;2023-05-10T04:29:54;21.30;;;6.38;;
59308;SDS011;48433;53.016;-2.260;2023-05-10T04:32:22;15.93;;;6.93;;
59308;SDS011;48433;53.016;-2.260;2023-05-10T04:34:50;11.80;;;6.53;;
59308;SDS011;48433;53.016;-2.260;2023-05-10T04:37:18;15.15;;;6.72;;
59308;SDS011;48433;53.016;-2.260;2023-05-10T04:39:46;17.30;;;5.90;;
59308;SDS011;48433;53.016;-2.260;2023-05-10T04:42:14;22.65;;;7.07;;
59308;SDS011;48433;53.016;-2.260;2023-05-10T04:44:42;17.35;;;6.80;;
59308;SDS011;48433;53.016;-2.260;2023-05-10T04:47:10;14.20;;;6.10;;
59308;SDS011;48433;53.016;-2.260;2023-05-10T04:49:40;15.85;;;7.68;;
59308;SDS011;48433;53.016;-2.260;2023-05-10T04:52:07;14.50;;;5.78;;
59308;SDS011;48433;53.016;-2.260;2023-05-10T04:54:35;12.52;;;6.40;;
59308;SDS011;48433;53.016;-2.260;2023-05-10T04:57:03;11.63;;;6.85;;
59308;SDS011;48433;53.016;-2.260;2023-05-10T04:59:30;17.38;;;7.13;;
59308;SDS011;48433;53.016;-2.260;2023-05-10T05:01:58;22.30;;;7.60;;
59308;SDS011;48433;53.016;-2.260;2023-05-10T05:04:25;17.30;;;6.13;;
59308;SDS011;48433;53.016;-2.260;2023-05-10T05:06:53;18.55;;;6.45;;
59308;SDS011;48433;53.016;-2.260;2023-05-10T05:09:20;16.25;;;7.82;;
59308;SDS011;48433;53.016;-2.260;2023-05-10T05:11:48;18.20;;;7.07;;
59308;SDS011;48433;53.016;-2.260;2023-05-10T05:14:16;15.73;;;7.13;;
59308;SDS011;48433;53.016;-2.260;2023-05-10T05:16:43;19.13;;;7.60;;
59308;SDS011;48433;53.016;-2.260;2023-05-10T05:19:11;17.55;;;6.50;;
59308;SDS011;48433;53.016;-2.260;2023-05-10T05:21:39;14.73;;;6.78;;
59308;SDS011;48433;53.016;-2.260;2023-05-10T05:24:07;18.08;;;6.70;;
59308;SDS011;48433;53.016;-2.260;2023-05-10T05:26:35;18.75;;;6.72;;
59308;SDS011;48433;53.016;-2.260;2023-05-10T05:29:03;21.25;;;7.78;;
59308;SDS011;48433;53.016;-2.260;2023-05-10T05:31:31;22.88;;;8.63;;
59308;SDS011;48433;53.016;-2.260;2023-05-10T05:33:59;17.42;;;7.35;;
59308;SDS011;48433;53.016;-2.260;2023-05-10T05:36:27;20.15;;;9.77;;
59308;SDS011;48433;53.016;-2.260;2023-05-10T05:38:54;17.95;;;7.93;;
59308;SDS011;48433;53.016;-2.260;2023-05-10T05:41:22;15.35;;;7.70;;
59308;SDS011;48433;53.016;-2.260;2023-05-10T05:43:51;22.17;;;7.50;;
59308;SDS011;48433;53.016;-2.260;2023-05-10T05:46:18;17.92;;;6.80;;
59308;SDS011;48433;53.016;-2.260;2023-05-10T05:48:46;21.00;;;5.88;;
59308;SDS011;48433;53.016;-2.260;2023-05-10T05:51:14;14.73;;;7.13;;
59308;SDS011;48433;53.016;-2.260;2023-05-10T05:53:42;17.20;;;7.20;;
59308;SDS011;48433;53.016;-2.260;2023-05-10T05:56:09;18.50;;;6.90;;
59308;SDS011;48433;53.016;-2.260;2023-05-10T05:58:37;16.80;;;7.72;;
59308;SDS011;48433;53.016;-2.260;2023-05-10T06:01:04;21.55;;;7.93;;
59308;SDS011;48433;53.016;-2.260;2023-05-10T06:03:32;13.90;;;7.38;;
59308;SDS011;48433;53.016;-2.260;2023-05-10T06:06:00;18.60;;;6.40;;
59308;SDS011;48433;53.016;-2.260;2023-05-10T06:08:27;13.30;;;5.40;;
59308;SDS011;48433;53.016;-2.260;2023-05-10T06:10:55;14.35;;;5.88;;
59308;SDS011;48433;53.016;-2.260;2023-05-10T06:13:23;22.85;;;7.35;;
59308;SDS011;48433;53.016;-2.260;2023-05-10T06:15:50;15.25;;;6.07;;
59308;SDS011;48433;53.016;-2.260;2023-05-10T06:18:18;15.18;;;5.78;;
59308;SDS011;48433;53.016;-2.260;2023-05-10T06:20:46;14.55;;;5.20;;
59308;SDS011;48433;53.016;-2.260;2023-05-10T06:23:13;16.05;;;5.80;;
59308;SDS011;48433;53.016;-2.260;2023-05-10T06:25:41;13.65;;;5.68;;
59308;SDS011;48433;53.016;-2.260;2023-05-10T06:28:09;17.67;;;5.75;;
59308;SDS011;48433;53.016;-2.260;2023-05-10T06:30:36;14.00;;;4.97;;
59308;SDS011;48433;53.016;-2.260;2023-05-10T06:33:04;13.95;;;5.57;;
59308;SDS011;48433;53.016;-2.260;2023-05-10T06:35:32;13.02;;;4.07;;
59308;SDS011;48433;53.016;-2.260;2023-05-10T06:38:00;16.60;;;4.90;;
59308;SDS011;48433;53.016;-2.260;2023-05-10T06:40:28;17.63;;;4.65;;
59308;SDS011;48433;53.016;-2.260;2023-05-10T06:42:56;11.38;;;4.10;;
59308;SDS011;48433;53.016;-2.260;2023-05-10T06:45:23;16.88;;;4.60;;
59308;SDS011;48433;53.016;-2.260;2023-05-10T06:47:51;17.77;;;5.07;;
59308;SDS011;48433;53.016;-2.260;2023-05-10T06:50:18;12.05;;;3.88;;
59308;SDS011;48433;53.016;-2.260;2023-05-10T06:52:46;12.20;;;4.20;;
59308;SDS011;48433;53.016;-2.260;2023-05-10T06:55:14;17.88;;;4.45;;
59308;SDS011;48433;53.016;-2.260;2023-05-10T06:57:42;10.82;;;3.38;;
59308;SDS011;48433;53.016;-2.260;2023-05-10T07:00:10;11.30;;;3.50;;
59308;SDS011;48433;53.016;-2.260;2023-05-10T07:02:38;14.13;;;4.00;;
59308;SDS011;48433;53.016;-2.260;2023-05-10T07:05:05;16.48;;;4.15;;
59308;SDS011;48433;53.016;-2.260;2023-05-10T07:07:33;17.13;;;3.65;;
59308;SDS011;48433;53.016;-2.260;2023-05-10T07:10:01;13.63;;;3.63;;
59308;SDS011;48433;53.016;-2.260;2023-05-10T07:12:29;11.77;;;2.65;;
59308;SDS011;48433;53.016;-2.260;2023-05-10T07:14:57;7.85;;;2.35;;
59308;SDS011;48433;53.016;-2.260;2023-05-10T07:17:25;11.35;;;2.55;;
59308;SDS011;48433;53.016;-2.260;2023-05-10T07:19:52;8.80;;;2.38;;
59308;SDS011;48433;53.016;-2.260;2023-05-10T07:22:20;10.05;;;3.15;;
59308;SDS011;48433;53.016;-2.260;2023-05-10T07:24:48;13.93;;;2.95;;
59308;SDS011;48433;53.016;-2.260;2023-05-10T07:27:15;12.48;;;3.00;;
59308;SDS011;48433;53.016;-2.260;2023-05-10T07:29:43;11.65;;;2.85;;
59308;SDS011;48433;53.016;-2.260;2023-05-10T07:32:11;8.32;;;2.25;;
59308;SDS011;48433;53.016;-2.260;2023-05-10T07:34:38;8.43;;;2.33;;
59308;SDS011;48433;53.016;-2.260;2023-05-10T07:37:06;10.23;;;2.75;;
59308;SDS011;48433;53.016;-2.260;2023-05-10T07:39:34;8.00;;;2.17;;
59308;SDS011;48433;53.016;-2.260;2023-05-10T07:42:01;12.52;;;2.50;;
59308;SDS011;48433;53.016;-2.260;2023-05-10T07:44:29;8.40;;;2.60;;
59308;SDS011;48433;53.016;-2.260;2023-05-10T07:46:57;13.30;;;3.63;;
59308;SDS011;48433;53.016;-2.260;2023-05-10T07:49:25;10.70;;;3.65;;
59308;SDS011;48433;53.016;-2.260;2023-05-10T07:51:53;12.00;;;4.07;;
59308;SDS011;48433;53.016;-2.260;2023-05-10T07:54:20;11.35;;;3.10;;
59308;SDS011;48433;53.016;-2.260;2023-05-10T07:56:48;8.18;;;2.03;;
59308;SDS011;48433;53.016;-2.260;2023-05-10T07:59:16;9.57;;;2.38;;
59308;SDS011;48433;53.016;-2.260;2023-05-10T08:01:44;12.27;;;2.53;;
59308;SDS011;48433;53.016;-2.260;2023-05-10T08:04:12;12.95;;;2.08;;
59308;SDS011;48433;53.016;-2.260;2023-05-10T08:06:40;7.70;;;2.35;;
59308;SDS011;48433;53.016;-2.260;2023-05-10T08:09:08;15.00;;;3.80;;
59308;SDS011;48433;53.016;-2.260;2023-05-10T08:11:36;10.90;;;3.00;;
59308;SDS011;48433;53.016;-2.260;2023-05-10T08:14:03;13.90;;;3.13;;
59308;SDS011;48433;53.016;-2.260;2023-05-10T08:16:31;7.72;;;3.00;;
59308;SDS011;48433;53.016;-2.260;2023-05-10T08:18:59;11.85;;;2.95;;
59308;SDS011;48433;53.016;-2.260;2023-05-10T08:21:27;8.77;;;3.28;;
59308;SDS011;48433;53.016;-2.260;2023-05-10T08:23:54;9.32;;;3.42;;
59308;SDS011;48433;53.016;-2.260;2023-05-10T08:26:22;11.85;;;3.60;;
59308;SDS011;48433;53.016;-2.260;2023-05-10T08:28:50;11.95;;;3.50;;
59308;SDS011;48433;53.016;-2.260;2023-05-10T08:31:17;9.45;;;2.95;;
59308;SDS011;48433;53.016;-2.260;2023-05-10T08:33:45;11.02;;;3.58;;
59308;SDS011;48433;53.016;-2.260;2023-05-10T08:36:13;14.57;;;3.50;;
59308;SDS011;48433;53.016;-2.260;2023-05-10T08:38:47;17.88;;;3.53;;
59308;SDS011;48433;53.016;-2.260;2023-05-10T08:43:50;9.05;;;2.92;;
59308;SDS011;48433;53.016;-2.260;2023-05-10T08:46:19;8.30;;;3.08;;
59308;SDS011;48433;53.016;-2.260;2023-05-10T08:48:49;9.80;;;2.70;;
59308;SDS011;48433;53.016;-2.260;2023-05-10T08:51:23;7.88;;;2.85;;
59308;SDS011;48433;53.016;-2.260;2023-05-10T08:53:53;6.03;;;2.72;;
59308;SDS011;48433;53.016;-2.260;2023-05-10T08:56:21;11.50;;;3.45;;
59308;SDS011;48433;53.016;-2.260;2023-05-10T08:58:50;9.43;;;2.97;;
59308;SDS011;48433;53.016;-2.260;2023-05-10T09:01:18;9.00;;;3.05;;
59308;SDS011;48433;53.016;-2.260;2023-05-10T09:03:47;9.27;;;3.10;;
59308;SDS011;48433;53.016;-2.260;2023-05-10T09:06:15;11.57;;;3.85;;
59308;SDS011;48433;53.016;-2.260;2023-05-10T09:08:43;12.13;;;3.80;;
59308;SDS011;48433;53.016;-2.260;2023-05-10T09:11:11;15.80;;;4.22;;
59308;SDS011;48433;53.016;-2.260;2023-05-10T09:13:40;10.10;;;3.88;;
59308;SDS011;48433;53.016;-2.260;2023-05-10T09:16:08;10.13;;;3.60;;
59308;SDS011;48433;53.016;-2.260;2023-05-10T09:18:48;13.45;;;4.03;;
59308;SDS011;48433;53.016;-2.260;2023-05-10T09:21:16;10.82;;;3.03;;
59308;SDS011;48433;53.016;-2.260;2023-05-10T09:23:46;13.27;;;3.28;;
59308;SDS011;48433;53.016;-2.260;2023-05-10T09:26:14;9.55;;;2.85;;
59308;SDS011;48433;53.016;-2.260;2023-05-10T09:28:52;9.27;;;2.40;;
59308;SDS011;48433;53.016;-2.260;2023-05-10T09:31:24;7.22;;;2.47;;
59308;SDS011;48433;53.016;-2.260;2023-05-10T09:34:28;8.13;;;2.28;;
59308;SDS011;48433;53.016;-2.260;2023-05-10T09:36:58;7.57;;;1.95;;
59308;SDS011;48433;53.016;-2.260;2023-05-10T09:39:34;7.93;;;1.73;;
59308;SDS011;48433;53.016;-2.260;2023-05-10T09:42:07;5.78;;;1.90;;
59308;SDS011;48433;53.016;-2.260;2023-05-10T09:44:36;10.95;;;2.05;;
59308;SDS011;48433;53.016;-2.260;2023-05-10T09:47:05;7.82;;;1.80;;
59308;SDS011;48433;53.016;-2.260;2023-05-10T09:49:32;7.47;;;1.48;;
59308;SDS011;48433;53.016;-2.260;2023-05-10T09:52:05;4.68;;;1.58;;
59308;SDS011;48433;53.016;-2.260;2023-05-10T09:54:34;5.13;;;1.40;;
59308;SDS011;48433;53.016;-2.260;2023-05-10T09:57:02;4.55;;;1.20;;
59308;SDS011;48433;53.016;-2.260;2023-05-10T09:59:32;5.57;;;2.10;;
59308;SDS011;48433;53.016;-2.260;2023-05-10T10:02:01;11.73;;;1.77;;
59308;SDS011;48433;53.016;-2.260;2023-05-10T10:04:29;4.25;;;1.30;;
59308;SDS011;48433;53.016;-2.260;2023-05-10T10:06:58;14.38;;;2.33;;
59308;SDS011;48433;53.016;-2.260;2023-05-10T10:09:30;5.38;;;1.42;;
59308;SDS011;48433;53.016;-2.260;2023-05-10T10:12:02;5.53;;;1.88;;
59308;SDS011;48433;53.016;-2.260;2023-05-10T10:14:30;13.68;;;2.47;;
59308;SDS011;48433;53.016;-2.260;2023-05-10T10:16:59;7.28;;;1.75;;
59308;SDS011;48433;53.016;-2.260;2023-05-10T10:19:31;11.30;;;2.35;;
59308;SDS011;48433;53.016;-2.260;2023-05-10T10:22:00;6.95;;;1.30;;
59308;SDS011;48433;53.016;-2.260;2023-05-10T10:24:28;6.57;;;1.63;;
59308;SDS011;48433;53.016;-2.260;2023-05-10T10:26:57;4.38;;;1.48;;
59308;SDS011;48433;53.016;-2.260;2023-05-10T10:32:12;6.65;;;1.73;;
59308;SDS011;48433;53.016;-2.260;2023-05-10T10:34:47;7.60;;;2.15;;
59308;SDS011;48433;53.016;-2.260;2023-05-10T10:37:15;4.30;;;1.38;;
59308;SDS011;48433;53.016;-2.260;2023-05-10T10:39:43;4.40;;;1.10;;
59308;SDS011;48433;53.016;-2.260;2023-05-10T10:42:10;2.30;;;0.85;;
59308;SDS011;48433;53.016;-2.260;2023-05-10T10:44:38;4.88;;;0.93;;
59308;SDS011;48433;53.016;-2.260;2023-05-10T10:57:42;5.55;;;1.50;;
59308;SDS011;48433;53.016;-2.260;2023-05-10T11:00:23;4.78;;;1.30;;
59308;SDS011;48433;53.016;-2.260;2023-05-10T11:02:55;3.83;;;1.00;;
59308;SDS011;48433;53.016;-2.260;2023-05-10T11:05:43;4.07;;;1.17;;
59308;SDS011;48433;53.016;-2.260;2023-05-10T11:19:07;7.28;;;2.10;;
59308;SDS011;48433;53.016;-2.260;2023-05-10T11:24:22;5.97;;;1.60;;
59308;SDS011;48433;53.016;-2.260;2023-05-10T11:26:54;3.53;;;1.00;;
59308;SDS011;48433;53.016;-2.260;2023-05-10T11:29:21;6.13;;;1.75;;
59308;SDS011;48433;53.016;-2.260;2023-05-10T11:31:50;3.47;;;1.10;;
59308;SDS011;48433;53.016;-2.260;2023-05-10T11:34:28;3.95;;;1.33;;
59308;SDS011;48433;53.016;-2.260;2023-05-10T11:37:05;3.85;;;1.30;;
59308;SDS011;48433;53.016;-2.260;2023-05-10T11:39:32;8.00;;;1.50;;
59308;SDS011;48433;53.016;-2.260;2023-05-10T11:42:00;3.90;;;1.30;;
59308;SDS011;48433;53.016;-2.260;2023-05-10T11:44:31;5.47;;;1.17;;
59308;SDS011;48433;53.016;-2.260;2023-05-10T11:46:59;2.92;;;0.95;;
59308;SDS011;48433;53.016;-2.260;2023-05-10T11:49:27;4.00;;;1.05;;
59308;SDS011;48433;53.016;-2.260;2023-05-10T11:52:07;5.78;;;1.20;;
59308;SDS011;48433;53.016;-2.260;2023-05-10T11:54:35;4.40;;;1.20;;
59308;SDS011;48433;53.016;-2.260;2023-05-10T11:57:03;3.97;;;0.98;;
59308;SDS011;48433;53.016;-2.260;2023-05-10T11:59:31;2.83;;;0.77;;
59308;SDS011;48433;53.016;-2.260;2023-05-10T12:01:58;6.28;;;1.10;;
59308;SDS011;48433;53.016;-2.260;2023-05-10T12:04:26;4.70;;;1.27;;
59308;SDS011;48433;53.016;-2.260;2023-05-10T12:06:56;2.05;;;0.88;;
59308;SDS011;48433;53.016;-2.260;2023-05-10T12:09:24;4.13;;;1.13;;
59308;SDS011;48433;53.016;-2.260;2023-05-10T12:12:09;4.63;;;0.88;;
59308;SDS011;48433;53.016;-2.260;2023-05-10T12:14:37;4.28;;;0.65;;
59308;SDS011;48433;53.016;-2.260;2023-05-10T12:17:05;5.53;;;0.90;;
59308;SDS011;48433;53.016;-2.260;2023-05-10T12:19:39;11.40;;;2.60;;
59308;SDS011;48433;53.016;-2.260;2023-05-10T12:22:08;5.70;;;0.80;;
59308;SDS011;48433;53.016;-2.260;2023-05-10T12:24:36;3.58;;;1.00;;
59308;SDS011;48433;53.016;-2.260;2023-05-10T12:27:05;4.95;;;0.85;;
59308;SDS011;48433;53.016;-2.260;2023-05-10T12:29:35;4.22;;;1.30;;
59308;SDS011;48433;53.016;-2.260;2023-05-10T12:32:03;4.97;;;1.35;;
59308;SDS011;48433;53.016;-2.260;2023-05-10T12:34:34;3.97;;;1.70;;
59308;SDS011;48433;53.016;-2.260;2023-05-10T12:37:03;5.65;;;2.03;;
59308;SDS011;48433;53.016;-2.260;2023-05-10T12:39:38;5.78;;;1.90;;
59308;SDS011;48433;53.016;-2.260;2023-05-10T12:42:07;10.48;;;2.00;;
59308;SDS011;48433;53.016;-2.260;2023-05-10T12:44:35;13.90;;;2.38;;
59308;SDS011;48433;53.016;-2.260;2023-05-10T12:47:02;7.68;;;1.92;;
59308;SDS011;48433;53.016;-2.260;2023-05-10T12:49:30;7.65;;;1.20;;
59308;SDS011;48433;53.016;-2.260;2023-05-10T12:51:58;3.10;;;1.10;;
59308;SDS011;48433;53.016;-2.260;2023-05-10T12:54:25;6.53;;;1.75;;
59308;SDS011;48433;53.016;-2.260;2023-05-10T12:56:53;3.65;;;1.30;;
59308;SDS011;48433;53.016;-2.260;2023-05-10T12:59:21;4.03;;;1.50;;
59308;SDS011;48433;53.016;-2.260;2023-05-10T13:01:49;6.63;;;1.40;;
59308;SDS011;48433;53.016;-2.260;2023-05-10T13:04:17;5.63;;;1.50;;
59308;SDS011;48433;53.016;-2.260;2023-05-10T13:06:44;7.32;;;1.55;;
59308;SDS011;48433;53.016;-2.260;2023-05-10T13:09:12;6.18;;;1.52;;
59308;SDS011;48433;53.016;-2.260;2023-05-10T13:11:40;7.10;;;1.90;;
59308;SDS011;48433;53.016;-2.260;2023-05-10T13:14:08;4.97;;;1.67;;
59308;SDS011;48433;53.016;-2.260;2023-05-10T13:16:35;5.15;;;1.38;;
59308;SDS011;48433;53.016;-2.260;2023-05-10T13:19:03;5.57;;;1.40;;
59308;SDS011;48433;53.016;-2.260;2023-05-10T13:21:30;7.07;;;2.03;;
59308;SDS011;48433;53.016;-2.260;2023-05-10T13:23:58;6.28;;;2.00;;
59308;SDS011;48433;53.016;-2.260;2023-05-10T13:26:30;5.43;;;1.90;;
59308;SDS011;48433;53.016;-2.260;2023-05-10T13:28:57;3.70;;;1.50;;
59308;SDS011;48433;53.016;-2.260;2023-05-10T13:31:25;4.28;;;1.48;;
59308;SDS011;48433;53.016;-2.260;2023-05-10T13:33:53;3.90;;;1.48;;
59308;SDS011;48433;53.016;-2.260;2023-05-10T13:36:20;5.07;;;1.65;;
59308;SDS011;48433;53.016;-2.260;2023-05-10T13:38:49;7.32;;;2.15;;
59308;SDS011;48433;53.016;-2.260;2023-05-10T13:41:17;7.93;;;2.42;;
59308;SDS011;48433;53.016;-2.260;2023-05-10T13:43:45;8.55;;;2.63;;
59308;SDS011;48433;53.016;-2.260;2023-05-10T13:46:12;6.97;;;2.40;;
59308;SDS011;48433;53.016;-2.260;2023-05-10T13:48:40;11.43;;;3.08;;
59308;SDS011;48433;53.016;-2.260;2023-05-10T13:51:08;7.57;;;2.55;;
59308;SDS011;48433;53.016;-2.260;2023-05-10T13:53:35;6.32;;;2.35;;
59308;SDS011;48433;53.016;-2.260;2023-05-10T13:56:03;8.25;;;2.72;;
59308;SDS011;48433;53.016;-2.260;2023-05-10T13:58:31;7.22;;;2.53;;
59308;SDS011;48433;53.016;-2.260;2023-05-10T14:00:58;4.85;;;2.08;;
59308;SDS011;48433;53.016;-2.260;2023-05-10T14:03:26;4.10;;;2.05;;
59308;SDS011;48433;53.016;-2.260;2023-05-10T14:05:53;8.52;;;2.65;;
59308;SDS011;48433;53.016;-2.260;2023-05-10T14:08:21;10.75;;;3.45;;
59308;SDS011;48433;53.016;-2.260;2023-05-10T14:10:49;6.20;;;2.33;;
59308;SDS011;48433;53.016;-2.260;2023-05-10T14:13:17;5.65;;;2.70;;
59308;SDS011;48433;53.016;-2.260;2023-05-10T14:15:45;6.43;;;3.85;;
59308;SDS011;48433;53.016;-2.260;2023-05-10T14:18:13;5.75;;;2.65;;
59308;SDS011;48433;53.016;-2.260;2023-05-10T14:20:41;6.90;;;2.38;;
59308;SDS011;48433;53.016;-2.260;2023-05-10T14:23:08;6.78;;;2.90;;
59308;SDS011;48433;53.016;-2.260;2023-05-10T14:25:39;8.32;;;2.65;;
59308;SDS011;48433;53.016;-2.260;2023-05-10T14:28:07;7.32;;;2.67;;
59308;SDS011;48433;53.016;-2.260;2023-05-10T14:30:36;5.65;;;1.92;;
59308;SDS011;48433;53.016;-2.260;2023-05-10T14:33:04;5.97;;;1.98;;
59308;SDS011;48433;53.016;-2.260;2023-05-10T14:35:31;5.18;;;2.03;;
59308;SDS011;48433;53.016;-2.260;2023-05-10T14:37:59;7.35;;;2.30;;
59308;SDS011;48433;53.016;-2.260;2023-05-10T14:40:27;8.35;;;4.32;;
59308;SDS011;48433;53.016;-2.260;2023-05-10T14:42:55;6.53;;;3.28;;
59308;SDS011;48433;53.016;-2.260;2023-05-10T14:45:23;7.47;;;3.58;;
59308;SDS011;48433;53.016;-2.260;2023-05-10T14:47:51;6.95;;;3.15;;
59308;SDS011;48433;53.016;-2.260;2023-05-10T14:50:19;7.72;;;3.53;;
59308;SDS011;48433;53.016;-2.260;2023-05-10T14:53:02;8.95;;;3.47;;
59308;SDS011;48433;53.016;-2.260;2023-05-10T14:55:29;6.72;;;3.25;;
59308;SDS011;48433;53.016;-2.260;2023-05-10T14:57:57;7.15;;;2.55;;
59308;SDS011;48433;53.016;-2.260;2023-05-10T15:00:25;4.85;;;2.38;;
59308;SDS011;48433;53.016;-2.260;2023-05-10T15:02:55;7.25;;;2.38;;
59308;SDS011;48433;53.016;-2.260;2023-05-10T15:05:23;4.20;;;1.73;;
59308;SDS011;48433;53.016;-2.260;2023-05-10T15:07:51;7.45;;;2.28;;
59308;SDS011;48433;53.016;-2.260;2023-05-10T15:10:18;5.80;;;2.30;;
59308;SDS011;48433;53.016;-2.260;2023-05-10T15:12:46;8.40;;;2.53;;
59308;SDS011;48433;53.016;-2.260;2023-05-10T15:15:13;4.30;;;2.10;;
59308;SDS011;48433;53.016;-2.260;2023-05-10T15:17:42;6.50;;;2.10;;
59308;SDS011;48433;53.016;-2.260;2023-05-10T15:20:10;9.13;;;2.80;;
59308;SDS011;48433;53.016;-2.260;2023-05-10T15:22:38;6.72;;;1.98;;
59308;SDS011;48433;53.016;-2.260;2023-05-10T15:25:05;6.05;;;2.00;;
59308;SDS011;48433;53.016;-2.260;2023-05-10T15:27:33;5.60;;;1.77;;